Time;durP1;ratioP1;P1;durP2;ratioP2;P2;SDS_P1;SDS_P2;PMS_P1;PMS_P2;Temp;Humidity;BMP_temperature;BMP_pressure;BME280_temperature;BME280_humidity;BME280_pressure;Samples;Min_cycle;Max_cycle;Signal;HPM_P1;HPM_P2
2022/01/13 00:00:05;;;;;;;264.48;91.90;;;;;;;-12.14;60.31;95913.48;1718368;82;21423;-62
2022/01/13 00:02:35;;;;;;;292.82;105.32;;;;;;;-12.10;60.29;95919.84;1720818;81;20999;-64
2022/01/13 00:05:00;;;;;;;307.43;111.68;;;;;;;-12.13;60.40;95915.06;1714808;82;21090;-65
2022/01/13 00:07:27;;;;;;;257.45;101.55;;;;;;;-12.10;60.40;95909.23;1720652;80;21020;-63
2022/01/13 00:09:54;;;;;;;260.65;94.75;;;;;;;-12.05;60.69;95911.83;1677356;84;21092;-62
2022/01/13 00:12:24;;;;;;;252.25;96.40;;;;;;;-11.94;60.52;95908.81;1766225;80;21058;-65
2022/01/13 00:15:08;;;;;;;271.32;98.50;;;;;;;-11.79;60.48;95910.53;1761711;80;21062;-64
2022/01/13 00:19:56;;;;;;;219.00;87.95;;;;;;;-11.37;59.68;95910.08;1762515;80;21031;-63
2022/01/13 00:25:01;;;;;;;150.15;59.10;;;;;;;-11.32;58.59;95898.63;1689824;83;21052;-63
2022/01/13 00:27:29;;;;;;;143.35;58.38;;;;;;;-11.47;58.42;95899.59;1675804;83;21132;-62
2022/01/13 00:29:59;;;;;;;180.40;68.60;;;;;;;-11.59;58.52;95901.86;1718416;83;21145;-63
2022/01/13 00:32:31;;;;;;;200.43;82.45;;;;;;;-11.68;58.64;95907.50;1713716;82;21019;-65
2022/01/13 00:34:57;;;;;;;205.67;78.30;;;;;;;-11.74;58.94;95900.67;1735750;81;21096;-63
2022/01/13 00:37:26;;;;;;;241.82;88.20;;;;;;;-11.68;59.03;95894.79;1761281;81;21512;-63
2022/01/13 00:39:54;;;;;;;218.10;84.95;;;;;;;-11.73;58.84;95895.62;1743143;81;21181;-64
2022/01/13 00:42:25;;;;;;;270.10;102.02;;;;;;;-11.73;59.10;95890.31;1735185;82;21158;-64
2022/01/13 00:44:52;;;;;;;339.38;121.95;;;;;;;-11.74;58.81;95898.57;1742542;81;21152;-63
2022/01/13 00:47:20;;;;;;;318.80;113.72;;;;;;;-11.73;59.04;95894.30;1718250;81;21503;-62
2022/01/13 00:49:47;;;;;;;268.90;105.10;;;;;;;-11.57;59.37;95897.61;1730230;82;21047;-64
2022/01/13 00:52:14;;;;;;;265.65;102.38;;;;;;;-11.42;58.77;95895.55;1721384;81;21047;-67
2022/01/13 00:54:41;;;;;;;245.10;97.12;;;;;;;-11.37;58.32;95896.81;1734173;81;21823;-64
2022/01/13 00:57:11;;;;;;;254.10;96.92;;;;;;;-11.29;58.06;95903.36;1683416;83;21725;-64
2022/01/13 00:59:40;;;;;;;249.40;96.37;;;;;;;-11.24;57.64;95903.30;1702211;83;21014;-65
2022/01/13 01:02:09;;;;;;;241.95;96.08;;;;;;;-11.17;57.38;95905.09;1685193;83;21090;-65
2022/01/13 01:04:37;;;;;;;238.77;96.45;;;;;;;-11.18;57.16;95900.86;1690293;83;21026;-64
2022/01/13 01:07:05;;;;;;;215.32;86.08;;;;;;;-11.25;57.06;95899.87;1708053;83;21074;-63
2022/01/13 01:09:47;;;;;;;156.28;64.75;;;;;;;-11.31;57.20;95912.16;1709195;81;22009;-62
2022/01/13 01:12:11;;;;;;;262.35;80.95;;;;;;;-11.47;57.23;95923.99;1723462;81;21035;-63
2022/01/13 01:14:45;;;;;;;232.57;82.08;;;;;;;-11.64;57.29;95924.47;1718565;81;21111;-64
2022/01/13 01:17:08;;;;;;;216.70;82.72;;;;;;;-11.88;57.20;95925.48;1714128;81;21085;-63
2022/01/13 01:19:40;;;;;;;219.07;85.50;;;;;;;-12.14;57.53;95926.73;1730420;81;21177;-62
2022/01/13 01:22:56;;;;;;;248.80;88.17;;;;;;;-12.21;57.95;95931.57;1732464;81;21748;-63
2022/01/13 01:24:59;;;;;;;204.72;79.55;;;;;;;-12.16;58.52;95930.75;1705066;82;21009;-63
2022/01/13 01:27:18;;;;;;;208.65;79.17;;;;;;;-11.97;58.60;95931.11;1724634;81;21083;-62
2022/01/13 01:29:44;;;;;;;187.50;74.75;;;;;;;-11.90;58.43;95928.95;1709639;81;20988;-63
2022/01/13 01:32:15;;;;;;;185.28;70.42;;;;;;;-11.74;58.71;95930.41;1719548;81;21779;-70
2022/01/13 01:34:53;;;;;;;212.90;80.97;;;;;;;-11.49;58.12;95916.85;1701970;82;21122;-63
2022/01/13 01:37:15;;;;;;;200.38;81.80;;;;;;;-11.50;57.48;95920.58;1707383;81;21102;-64
2022/01/13 01:39:37;;;;;;;242.65;100.38;;;;;;;-11.54;57.92;95921.67;1711410;81;21504;-64
2022/01/13 01:42:06;;;;;;;242.50;99.25;;;;;;;-11.35;57.83;95913.80;1728276;81;21023;-63
2022/01/13 01:44:38;;;;;;;257.02;101.82;;;;;;;-11.33;57.48;95907.66;1720494;81;21776;-64
2022/01/13 01:47:03;;;;;;;241.78;95.40;;;;;;;-11.26;57.77;95914.74;1703226;83;21145;-65
2022/01/13 01:49:38;;;;;;;207.40;85.92;;;;;;;-11.15;57.34;95917.55;1700184;84;21039;-63
2022/01/13 01:52:05;;;;;;;191.80;72.47;;;;;;;-11.19;56.86;95916.55;1687124;83;21546;-64
2022/01/13 01:54:33;;;;;;;170.55;68.40;;;;;;;-11.20;56.62;95916.29;1681001;83;21049;-63
2022/01/13 01:57:02;;;;;;;175.60;70.35;;;;;;;-11.29;56.56;95924.60;1695448;81;21045;-63
2022/01/13 01:59:31;;;;;;;178.82;69.15;;;;;;;-11.29;56.74;95920.63;1699330;81;21018;-64
2022/01/13 02:02:01;;;;;;;166.15;68.78;;;;;;;-11.25;56.36;95921.11;1722527;81;21047;-64
2022/01/13 02:04:33;;;;;;;162.68;67.70;;;;;;;-11.27;55.99;95915.30;1734061;81;21006;-63
2022/01/13 02:07:04;;;;;;;212.08;80.22;;;;;;;-11.34;55.57;95919.36;1748362;81;21076;-64
2022/01/13 02:09:36;;;;;;;228.27;85.62;;;;;;;-11.50;55.62;95921.91;1699744;82;21160;-64
2022/01/13 02:12:08;;;;;;;227.45;87.80;;;;;;;-11.60;56.22;95924.68;1688111;83;21082;-63
2022/01/13 02:14:37;;;;;;;254.53;91.17;;;;;;;-11.60;56.24;95928.66;1678282;83;21105;-63
2022/01/13 02:17:13;;;;;;;162.12;61.08;;;;;;;-11.81;56.42;95924.61;1690895;83;20983;-66
2022/01/13 02:19:43;;;;;;;232.62;87.15;;;;;;;-11.99;57.11;95934.58;1717413;83;21036;-63
2022/01/13 02:22:13;;;;;;;251.22;96.42;;;;;;;-12.16;57.30;95924.13;1704479;82;21770;-64
2022/01/13 02:24:40;;;;;;;207.83;83.55;;;;;;;-12.26;58.03;95925.51;1742674;82;21149;-62
2022/01/13 02:27:08;;;;;;;179.07;71.57;;;;;;;-12.22;58.46;95919.39;1733751;81;21096;-64
2022/01/13 02:29:36;;;;;;;184.72;68.92;;;;;;;-12.22;58.37;95911.44;1678400;82;20982;-63
2022/01/13 02:32:05;;;;;;;200.50;79.20;;;;;;;-12.32;58.34;95910.17;1711352;82;21500;-63
2022/01/13 02:34:31;;;;;;;217.35;79.42;;;;;;;-12.44;58.45;95912.39;1729169;80;21198;-63
2022/01/13 02:36:59;;;;;;;228.55;83.05;;;;;;;-12.58;58.68;95916.72;1747315;80;21025;-63
2022/01/13 02:39:30;;;;;;;227.57;83.45;;;;;;;-12.61;59.10;95905.87;1738903;81;21018;-63
2022/01/13 02:41:57;;;;;;;210.53;81.63;;;;;;;-12.49;59.73;95903.16;1746853;81;21548;-63
2022/01/13 02:44:24;;;;;;;205.85;81.32;;;;;;;-12.20;59.71;95898.69;1701731;82;21540;-63
2022/01/13 02:49:21;;;;;;;234.25;91.12;;;;;;;-11.64;58.21;95905.09;1684588;82;21516;-63
2022/01/13 02:51:52;;;;;;;251.15;94.87;;;;;;;-11.54;57.71;95894.36;1734271;81;21565;-64
2022/01/13 02:54:21;;;;;;;282.60;101.22;;;;;;;-11.43;57.21;95901.13;1742090;81;21465;-63
2022/01/13 02:56:48;;;;;;;256.38;94.92;;;;;;;-11.52;56.87;95899.62;1687876;83;21687;-63
2022/01/13 02:59:18;;;;;;;224.82;80.60;;;;;;;-11.70;57.03;95890.30;1735790;81;21938;-63
2022/01/13 03:01:44;;;;;;;230.85;92.15;;;;;;;-11.90;57.18;95883.86;1733313;81;20998;-65
2022/01/13 03:04:12;;;;;;;219.07;85.72;;;;;;;-12.13;57.58;95887.23;1734284;82;21620;-67
2022/01/13 03:06:41;;;;;;;234.80;86.50;;;;;;;-12.15;58.39;95884.06;1737781;81;21058;-62
2022/01/13 03:09:14;;;;;;;266.75;98.72;;;;;;;-12.02;58.42;95884.76;1689471;82;21108;-63
2022/01/13 03:11:44;;;;;;;258.38;100.38;;;;;;;-12.01;58.07;95879.19;1697045;83;21185;-63
2022/01/13 03:14:11;;;;;;;216.10;80.65;;;;;;;-12.08;58.18;95881.09;1702567;82;21006;-64
2022/01/13 03:16:40;;;;;;;206.97;78.92;;;;;;;-12.07;58.11;95880.83;1673817;83;22194;-65
2022/01/13 03:19:06;;;;;;;234.87;87.27;;;;;;;-12.07;58.17;95877.63;1700148;83;21128;-62
2022/01/13 03:21:33;;;;;;;239.32;89.72;;;;;;;-12.04;58.12;95886.34;1687167;80;21009;-61
2022/01/13 03:24:00;;;;;;;189.47;73.35;;;;;;;-12.03;57.81;95880.52;1730076;82;21943;-63
2022/01/13 03:26:27;;;;;;;160.15;68.87;;;;;;;-11.99;57.60;95876.23;1722733;81;21460;-62
2022/01/13 03:29:04;;;;;;;198.30;78.47;;;;;;;-11.91;57.86;95879.63;1696595;82;21039;-60
2022/01/13 03:31:23;;;;;;;228.80;86.12;;;;;;;-11.92;57.72;95880.15;1717942;82;21150;-64
2022/01/13 03:33:50;;;;;;;229.43;87.42;;;;;;;-11.87;57.81;95880.09;1739390;81;21010;-61
2022/01/13 03:36:18;;;;;;;210.82;80.62;;;;;;;-11.74;57.37;95881.33;1717194;82;21105;-63
2022/01/13 03:38:47;;;;;;;174.40;68.45;;;;;;;-11.60;57.15;95891.52;1722880;80;20985;-63
2022/01/13 03:41:14;;;;;;;124.53;49.30;;;;;;;-11.59;57.01;95891.24;1693394;82;21073;-66
2022/01/13 03:43:42;;;;;;;201.88;72.00;;;;;;;-11.61;56.94;95893.91;1684701;81;21494;-62
2022/01/13 03:46:10;;;;;;;179.32;69.30;;;;;;;-11.75;56.75;95895.11;1663188;83;22415;-64
2022/01/13 03:48:39;;;;;;;249.37;93.82;;;;;;;-11.89;56.39;95895.50;1693566;83;21806;-69
2022/01/13 03:51:06;;;;;;;220.10;85.35;;;;;;;-12.16;56.63;95890.98;1684657;83;21161;-61
2022/01/13 03:53:41;;;;;;;228.27;84.58;;;;;;;-12.39;57.07;95889.83;1689586;83;21046;-63
2022/01/13 03:56:41;;;;;;;225.85;84.37;;;;;;;-12.44;57.67;95884.58;1687062;83;21628;-62
2022/01/13 03:59:45;;;;;;;181.37;70.03;;;;;;;-12.40;57.88;95897.52;1688985;82;21088;-63
2022/01/13 04:02:14;;;;;;;209.77;82.65;;;;;;;-12.52;58.08;95893.09;1685087;81;21837;-63
2022/01/13 04:04:47;;;;;;;214.05;83.05;;;;;;;-12.71;58.70;95896.67;1713349;81;21508;-63
2022/01/13 04:07:23;;;;;;;210.93;82.75;;;;;;;-12.80;58.93;95893.81;1729307;81;21408;-62
2022/01/13 04:09:55;;;;;;;183.97;74.70;;;;;;;-12.71;59.45;95894.80;1720710;81;20999;-63
2022/01/13 04:12:25;;;;;;;176.70;70.10;;;;;;;-12.56;59.60;95905.31;1699897;83;21076;-63
2022/01/13 04:14:55;;;;;;;204.57;81.10;;;;;;;-12.44;59.38;95899.14;1672237;83;21165;-63
2022/01/13 04:17:22;;;;;;;223.90;93.10;;;;;;;-12.35;59.67;95893.50;1682744;83;21054;-64
2022/01/13 04:19:49;;;;;;;260.02;99.60;;;;;;;-12.04;59.84;95898.83;1711860;83;21070;-62
2022/01/13 04:22:17;;;;;;;254.72;101.20;;;;;;;-11.65;59.67;95890.24;1658508;83;21066;-61
2022/01/13 04:24:46;;;;;;;185.63;76.12;;;;;;;-11.22;59.22;95885.22;1690806;83;20954;-64
2022/01/13 04:27:29;;;;;;;229.82;94.17;;;;;;;-10.98;58.20;95887.34;1695305;82;21153;-63
2022/01/13 04:32:38;;;;;;;205.20;86.47;;;;;;;-10.93;57.89;95872.14;1671951;83;22119;-62
2022/01/13 04:35:07;;;;;;;197.07;79.00;;;;;;;-10.77;57.71;95867.40;1702151;82;21086;-62
2022/01/13 04:37:34;;;;;;;177.15;68.55;;;;;;;-10.61;57.55;95874.09;1701335;82;21007;-63
2022/01/13 04:40:01;;;;;;;204.10;78.33;;;;;;;-10.44;57.25;95878.36;1702406;83;21530;-63
2022/01/13 04:42:34;;;;;;;160.65;69.75;;;;;;;-10.37;57.03;95882.24;1701250;83;20874;-62
2022/01/13 04:44:57;;;;;;;156.43;67.25;;;;;;;-10.28;56.54;95884.48;1693967;83;21432;-63
2022/01/13 04:47:24;;;;;;;151.25;64.05;;;;;;;-10.32;56.65;95873.62;1719570;81;20988;-61
2022/01/13 04:49:51;;;;;;;246.18;95.53;;;;;;;-10.17;56.34;95874.73;1719129;81;21056;-62
2022/01/13 04:52:18;;;;;;;164.95;71.42;;;;;;;-10.26;55.85;95880.99;1699608;82;21135;-61
2022/01/13 04:54:45;;;;;;;175.60;73.92;;;;;;;-10.38;55.96;95879.34;1725672;82;21780;-63
2022/01/13 04:57:17;;;;;;;162.40;68.40;;;;;;;-10.42;56.35;95882.85;1733516;81;20956;-63
2022/01/13 04:59:43;;;;;;;165.88;70.12;;;;;;;-10.38;56.50;95886.51;1743696;81;21055;-62
2022/01/13 05:02:10;;;;;;;167.22;75.57;;;;;;;-10.32;56.38;95877.61;1682026;84;21518;-63
2022/01/13 05:04:37;;;;;;;154.27;61.30;;;;;;;-10.28;56.39;95883.96;1711508;83;21204;-65
2022/01/13 05:07:04;;;;;;;135.95;56.85;;;;;;;-10.12;56.51;95881.32;1709358;83;20986;-64
2022/01/13 05:09:32;;;;;;;126.33;53.10;;;;;;;-9.98;56.31;95882.66;1708127;82;20993;-64
2022/01/13 05:12:01;;;;;;;129.23;58.08;;;;;;;-9.82;56.17;95872.80;1686838;83;21560;-63
2022/01/13 05:14:29;;;;;;;143.35;65.00;;;;;;;-9.78;55.49;95876.44;1721182;82;21023;-64
2022/01/13 05:17:04;;;;;;;129.68;56.53;;;;;;;-9.87;55.59;95875.55;1712048;83;21161;-64
2022/01/13 05:19:35;;;;;;;125.67;53.05;;;;;;;-9.68;55.81;95878.94;1687979;82;21002;-63
2022/01/13 05:24:24;;;;;;;108.60;50.50;;;;;;;-9.54;55.50;95863.79;1730564;82;21488;-65
2022/01/13 05:26:51;;;;;;;106.58;50.33;;;;;;;-9.46;55.10;95870.31;1729344;80;21037;-59
2022/01/13 05:29:20;;;;;;;89.20;40.45;;;;;;;-9.48;55.25;95870.59;1734524;82;21095;-64
2022/01/13 05:31:49;;;;;;;148.72;62.60;;;;;;;-9.41;55.15;95870.20;1689593;82;21654;-62
2022/01/13 05:34:17;;;;;;;123.58;53.15;;;;;;;-9.41;55.45;95850.23;1722012;82;42053;-66
2022/01/13 05:36:44;;;;;;;114.00;50.30;;;;;;;-9.26;55.42;95836.07;1727684;81;20995;-64
2022/01/13 05:39:11;;;;;;;87.05;41.18;;;;;;;-9.14;55.14;95849.70;1756839;80;21042;-68
2022/01/13 05:41:38;;;;;;;117.47;49.23;;;;;;;-9.21;55.01;95838.63;1746523;80;21143;-60
2022/01/13 05:44:05;;;;;;;119.65;49.20;;;;;;;-9.36;54.80;95824.83;1750562;80;21443;-62
2022/01/13 05:46:32;;;;;;;116.03;46.98;;;;;;;-9.32;55.35;95834.61;1740881;80;21168;-68
2022/01/13 05:48:59;;;;;;;115.22;52.45;;;;;;;-9.13;55.36;95829.16;1699203;83;21594;-62
2022/01/13 05:51:28;;;;;;;136.55;60.63;;;;;;;-8.96;55.17;95811.48;1649598;83;21113;-63
2022/01/13 05:53:56;;;;;;;138.25;60.03;;;;;;;-9.04;54.52;95805.51;1634819;85;21027;-63
2022/01/13 05:56:24;;;;;;;173.57;75.52;;;;;;;-9.20;55.17;95816.27;1699072;83;21062;-62
2022/01/13 05:58:51;;;;;;;114.45;50.43;;;;;;;-9.31;55.27;95797.56;1719243;81;21006;-65
2022/01/13 06:01:17;;;;;;;95.53;45.85;;;;;;;-9.28;55.69;95792.19;1705807;81;21565;-62
2022/01/13 06:03:44;;;;;;;123.87;58.40;;;;;;;-9.41;55.40;95791.65;1698191;84;21011;-62
2022/01/13 06:06:11;;;;;;;126.72;57.40;;;;;;;-9.62;55.87;95793.13;1705653;83;21133;-64
2022/01/13 06:08:39;;;;;;;131.47;61.18;;;;;;;-9.57;56.27;95796.49;1694497;82;21095;-63
2022/01/13 06:11:09;;;;;;;151.30;65.47;;;;;;;-9.48;55.94;95810.68;1705596;82;21140;-62
2022/01/13 06:13:37;;;;;;;135.52;60.00;;;;;;;-9.44;56.12;95809.00;1706632;81;21045;-62
2022/01/13 06:16:04;;;;;;;115.40;51.85;;;;;;;-9.29;56.03;95802.60;1731222;81;21409;-62
2022/01/13 06:18:33;;;;;;;113.12;50.50;;;;;;;-9.24;55.38;95816.58;1741983;81;22313;-62
2022/01/13 06:21:03;;;;;;;119.53;54.55;;;;;;;-9.35;55.25;95811.23;1745010;81;21132;-62
2022/01/13 06:23:30;;;;;;;126.05;56.73;;;;;;;-9.34;55.44;95803.48;1750271;81;21038;-63
2022/01/13 06:25:57;;;;;;;103.60;48.75;;;;;;;-9.37;55.13;95814.73;1746874;80;21092;-67
2022/01/13 06:28:24;;;;;;;124.60;53.98;;;;;;;-9.49;55.27;95815.77;1732435;81;21016;-65
2022/01/13 06:30:51;;;;;;;125.07;58.80;;;;;;;-9.64;55.42;95824.03;1749262;81;21871;-62
2022/01/13 06:33:19;;;;;;;140.52;64.60;;;;;;;-9.76;55.82;95825.03;1744870;81;21100;-61
2022/01/13 06:35:48;;;;;;;140.52;66.47;;;;;;;-9.76;56.23;95838.91;1729658;81;21027;-62
2022/01/13 06:38:15;;;;;;;161.68;71.57;;;;;;;-9.69;56.28;95848.08;1743931;82;21045;-62
2022/01/13 06:40:43;;;;;;;143.32;64.45;;;;;;;-9.68;56.43;95854.98;1734339;81;21066;-67
2022/01/13 06:43:10;;;;;;;165.68;81.95;;;;;;;-9.54;56.41;95866.45;1745682;81;21140;-65
2022/01/13 06:45:39;;;;;;;172.28;80.30;;;;;;;-9.55;56.37;95866.20;1698962;82;21050;-65
2022/01/13 06:48:08;;;;;;;171.00;74.97;;;;;;;-9.51;56.24;95872.52;1722668;81;21109;-64
2022/01/13 06:50:35;;;;;;;187.07;83.62;;;;;;;-9.54;56.34;95866.98;1699603;80;21552;-67
2022/01/13 06:53:03;;;;;;;182.22;82.27;;;;;;;-9.56;56.21;95857.17;1728712;80;21106;-63
2022/01/13 06:55:30;;;;;;;194.60;87.10;;;;;;;-9.66;56.30;95850.16;1716904;80;21107;-63
2022/01/13 06:57:58;;;;;;;190.38;87.30;;;;;;;-9.70;56.51;95848.36;1729056;80;21513;-68
2022/01/13 07:00:25;;;;;;;163.87;77.03;;;;;;;-9.62;56.59;95829.07;1714562;81;21090;-65
2022/01/13 07:02:53;;;;;;;186.88;84.87;;;;;;;-9.55;56.37;95828.94;1717405;80;21498;-67
2022/01/13 07:05:23;;;;;;;157.67;75.25;;;;;;;-9.61;56.40;95829.31;1703806;82;21027;-66
2022/01/13 07:07:52;;;;;;;195.50;91.92;;;;;;;-9.75;56.65;95828.50;1718990;81;21407;-64
2022/01/13 07:10:23;;;;;;;174.90;81.57;;;;;;;-9.86;56.96;95829.23;1729650;81;21069;-68
2022/01/13 07:12:49;;;;;;;171.50;76.62;;;;;;;-9.87;57.15;95829.50;1687806;81;21046;-64
2022/01/13 07:15:22;;;;;;;143.55;66.57;;;;;;;-9.89;57.45;95824.49;1715850;81;21101;-64
2022/01/13 07:17:51;;;;;;;175.97;81.40;;;;;;;-9.81;57.65;95821.14;1710896;80;21077;-74
2022/01/13 07:20:17;;;;;;;144.55;61.45;;;;;;;-9.81;57.68;95809.17;1717466;81;21243;-64
2022/01/13 07:22:44;;;;;;;241.48;98.20;;;;;;;-9.79;58.00;95813.66;1704136;82;21028;-65
2022/01/13 07:25:11;;;;;;;265.32;101.47;;;;;;;-9.69;58.32;95807.36;1727192;81;21140;-64
2022/01/13 07:27:40;;;;;;;273.55;110.60;;;;;;;-9.56;58.03;95799.41;1744607;80;21026;-64
2022/01/13 07:30:08;;;;;;;241.68;108.57;;;;;;;-9.41;58.22;95802.30;1735720;80;21121;-66
2022/01/13 07:32:35;;;;;;;177.97;80.87;;;;;;;-9.22;58.13;95799.76;1733363;81;21125;-67
2022/01/13 07:35:02;;;;;;;155.37;72.75;;;;;;;-8.99;57.86;95804.62;1734203;81;21164;-67
2022/01/13 07:37:29;;;;;;;165.57;78.28;;;;;;;-8.83;57.45;95810.68;1728861;80;21141;-65
2022/01/13 07:39:56;;;;;;;193.55;88.50;;;;;;;-8.70;57.26;95811.17;1746254;80;21074;-70
2022/01/13 07:42:26;;;;;;;216.02;99.05;;;;;;;-8.48;57.51;95815.20;1732275;81;22220;-64
2022/01/13 07:44:53;;;;;;;214.02;95.62;;;;;;;-8.12;57.14;95815.91;1707380;81;22268;-67
2022/01/13 07:47:20;;;;;;;209.75;94.20;;;;;;;-7.91;56.56;95817.02;1744671;81;21588;-63
2022/01/13 07:49:49;;;;;;;184.63;84.90;;;;;;;-7.80;56.39;95815.11;1740068;81;20966;-68
2022/01/13 07:52:15;;;;;;;182.82;85.10;;;;;;;-7.65;55.94;95820.07;1750811;81;21069;-64
2022/01/13 07:54:42;;;;;;;155.67;73.75;;;;;;;-7.67;55.62;95820.12;1725116;80;21097;-66
2022/01/13 07:57:09;;;;;;;162.85;69.62;;;;;;;-7.80;55.76;95826.33;1716541;81;21794;-65
2022/01/13 07:59:37;;;;;;;106.12;51.70;;;;;;;-7.91;55.99;95822.35;1734256;80;21617;-65
2022/01/13 08:02:03;;;;;;;123.58;59.05;;;;;;;-7.84;56.28;95831.51;1701922;82;21137;-66
2022/01/13 08:04:32;;;;;;;101.55;53.98;;;;;;;-7.66;56.22;95831.85;1656114;83;21192;-66
2022/01/13 08:07:02;;;;;;;110.25;55.25;;;;;;;-7.49;55.84;95829.80;1656667;85;21025;-65
2022/01/13 08:09:31;;;;;;;105.95;53.90;;;;;;;-7.34;55.63;95825.39;1668821;83;21141;-65
2022/01/13 08:11:58;;;;;;;119.10;58.65;;;;;;;-7.18;55.63;95814.53;1666502;83;21828;-67
2022/01/13 08:14:27;;;;;;;126.15;64.95;;;;;;;-7.02;55.39;95811.64;1675507;82;21069;-63
2022/01/13 08:16:57;;;;;;;189.70;93.05;;;;;;;-6.91;55.51;95812.41;1655226;83;20994;-61
2022/01/13 08:22:10;;;;;;;134.55;57.30;;;;;;;-6.31;54.79;95808.67;1672777;82;21157;-64
2022/01/13 08:24:38;;;;;;;172.02;81.80;;;;;;;-6.36;54.03;95806.17;1675917;83;21102;-70
2022/01/13 08:27:05;;;;;;;159.27;79.05;;;;;;;-6.52;54.13;95809.07;1663918;83;21141;-60
2022/01/13 08:29:33;;;;;;;163.35;80.15;;;;;;;-6.50;54.44;95809.54;1665427;83;21102;-64
2022/01/13 08:31:59;;;;;;;153.80;74.12;;;;;;;-6.31;54.60;95791.28;1698977;82;21132;-60
2022/01/13 08:34:26;;;;;;;172.07;83.50;;;;;;;-6.17;54.39;95795.92;1727183;81;21206;-68
2022/01/13 08:36:53;;;;;;;142.37;70.52;;;;;;;-5.99;54.46;95785.43;1724296;81;21195;-62
2022/01/13 08:39:21;;;;;;;174.35;86.87;;;;;;;-5.67;54.36;95775.48;1709521;80;21152;-66
2022/01/13 08:41:49;;;;;;;169.47;82.22;;;;;;;-5.51;54.23;95756.45;1727348;81;20990;-62
2022/01/13 08:44:16;;;;;;;166.62;84.00;;;;;;;-5.28;54.19;95752.39;1704382;81;21099;-59
2022/01/13 08:46:43;;;;;;;204.03;97.65;;;;;;;-4.98;53.93;95741.91;1670115;84;21705;-65
2022/01/13 08:49:10;;;;;;;130.47;67.67;;;;;;;-4.68;53.68;95730.02;1669566;83;20960;-63
2022/01/13 08:51:37;;;;;;;111.52;59.63;;;;;;;-4.31;53.11;95722.37;1650155;83;21411;-62
2022/01/13 08:54:04;;;;;;;98.80;48.40;;;;;;;-4.07;52.59;95710.39;1642023;86;21097;-62
2022/01/13 08:56:34;;;;;;;139.88;66.45;;;;;;;-3.88;52.26;95698.58;1654189;83;21634;-60
2022/01/13 08:59:01;;;;;;;126.22;62.62;;;;;;;-3.74;51.87;95693.66;1662549;83;21176;-66
2022/01/13 09:01:30;;;;;;;166.28;85.47;;;;;;;-3.68;51.62;95685.63;1693375;83;21030;-66
2022/01/13 09:03:58;;;;;;;177.38;80.60;;;;;;;-3.53;51.62;95684.97;1679917;83;21039;-64
2022/01/13 09:06:27;;;;;;;175.60;86.32;;;;;;;-3.30;51.33;95678.78;1668338;84;21042;-68
2022/01/13 09:08:55;;;;;;;158.45;82.00;;;;;;;-3.27;50.92;95666.03;1665325;84;21070;-62
2022/01/13 09:11:24;;;;;;;175.10;91.90;;;;;;;-3.23;50.99;95658.85;1645153;84;21234;-63
2022/01/13 09:13:57;;;;;;;171.77;91.45;;;;;;;-3.03;51.15;95656.00;1627576;85;21016;-59
2022/01/13 09:16:26;;;;;;;155.37;84.65;;;;;;;-2.66;50.98;95645.95;1726065;81;21068;-63
2022/01/13 09:21:23;;;;;;;158.87;85.12;;;;;;;-1.93;49.71;95625.63;1682901;82;21596;-62
2022/01/13 09:23:52;;;;;;;147.98;74.90;;;;;;;-1.72;49.42;95626.37;1727701;80;21263;-68
2022/01/13 09:26:21;;;;;;;142.57;74.17;;;;;;;-1.37;48.93;95622.39;1705838;80;21050;-64
2022/01/13 09:28:52;;;;;;;142.18;73.20;;;;;;;-0.93;48.21;95627.27;1722241;80;21640;-61
2022/01/13 09:31:19;;;;;;;146.93;75.95;;;;;;;-0.56;47.30;95631.73;1745355;80;21091;-63
2022/01/13 09:33:46;;;;;;;121.07;68.42;;;;;;;-0.31;46.86;95642.47;1718279;80;21345;-62
2022/01/13 09:36:17;;;;;;;133.43;69.80;;;;;;;-0.21;46.62;95645.97;1672975;84;21835;-64
2022/01/13 09:38:48;;;;;;;130.80;71.57;;;;;;;-0.18;46.57;95655.50;1678611;83;21649;-63
2022/01/13 09:41:17;;;;;;;154.60;81.32;;;;;;;-0.03;46.66;95660.61;1652849;85;21117;-58
2022/01/13 09:43:47;;;;;;;132.05;69.95;;;;;;;0.25;46.58;95660.56;1645706;85;21019;-61
2022/01/13 09:46:14;;;;;;;159.90;85.75;;;;;;;0.53;46.10;95665.91;1650222;85;21720;-66
2022/01/13 09:48:46;;;;;;;159.65;84.70;;;;;;;0.57;45.73;95664.03;1647793;85;21938;-64
2022/01/13 09:51:12;;;;;;;155.65;84.25;;;;;;;0.53;45.72;95668.61;1656417;83;21032;-65
2022/01/13 09:53:41;;;;;;;137.82;72.75;;;;;;;0.54;45.66;95672.88;1707024;82;21105;-63
2022/01/13 09:56:10;;;;;;;108.80;59.58;;;;;;;0.67;45.49;95678.34;1665691;82;21407;-61
2022/01/13 09:58:38;;;;;;;145.20;77.85;;;;;;;0.92;45.40;95668.68;1642906;83;21157;-61
2022/01/13 10:01:06;;;;;;;169.32;92.15;;;;;;;1.04;45.21;95660.92;1654800;85;21574;-63
2022/01/13 10:03:34;;;;;;;162.77;86.87;;;;;;;1.05;45.19;95645.67;1656740;84;21092;-64
2022/01/13 10:06:18;;;;;;;152.02;82.75;;;;;;;1.12;44.98;95645.77;1654087;85;21149;-63
2022/01/13 10:08:57;;;;;;;185.12;98.15;;;;;;;1.33;44.93;95656.91;1656385;83;21543;-61
2022/01/13 10:11:35;;;;;;;131.97;72.50;;;;;;;1.64;44.33;95647.07;1653824;84;21009;-68
2022/01/13 10:16:58;;;;;;;143.78;79.92;;;;;;;2.22;43.28;95646.78;1709556;82;21485;-68
2022/01/13 10:19:42;;;;;;;110.00;60.65;;;;;;;2.41;43.44;95634.37;1705142;82;21066;-64
2022/01/13 10:22:25;;;;;;;137.25;67.30;;;;;;;2.65;43.57;95636.55;1703892;82;21514;-61
2022/01/13 10:24:54;;;;;;;85.40;42.98;;;;;;;2.81;43.61;95630.27;1690402;83;21082;-61
2022/01/13 10:27:24;;;;;;;69.97;35.98;;;;;;;3.01;44.40;95617.98;1695791;81;21132;-63
2022/01/13 10:29:57;;;;;;;36.68;21.10;;;;;;;2.94;44.90;95603.00;1727761;81;20994;-61
2022/01/13 10:32:40;;;;;;;28.50;18.85;;;;;;;2.90;45.61;95604.33;1713563;81;21872;-60
2022/01/13 10:35:10;;;;;;;37.23;23.62;;;;;;;2.91;46.09;95596.37;1722035;81;21080;-61
2022/01/13 10:37:39;;;;;;;;;;;;;;;3.03;45.67;95595.32;1733980;81;21002;-62
2022/01/13 10:40:15;;;;;;;29.87;20.62;;;;;;;3.28;45.13;95602.45;1680786;83;21859;-60
2022/01/13 10:45:49;;;;;;;24.25;15.50;;;;;;;3.76;44.45;95597.06;1695425;82;21412;-63
2022/01/13 10:48:22;;;;;;;22.02;15.15;;;;;;;4.11;43.58;95580.85;1682414;84;21132;-62
2022/01/13 10:51:05;;;;;;;27.23;15.93;;;;;;;4.22;43.36;95585.75;1694611;81;21786;-61
2022/01/13 10:53:43;;;;;;;25.35;16.32;;;;;;;4.18;43.15;95574.84;1692608;83;21160;-62
2022/01/13 10:56:14;;;;;;;32.13;17.87;;;;;;;3.99;43.15;95580.63;1712294;81;21065;-64
2022/01/13 10:58:53;;;;;;;25.68;16.12;;;;;;;3.72;43.17;95582.67;1735330;81;20975;-62
2022/01/13 11:01:20;;;;;;;28.15;19.32;;;;;;;3.70;43.55;95577.60;1731117;81;21025;-61
2022/01/13 11:03:48;;;;;;;32.93;18.85;;;;;;;3.74;43.89;95576.27;1735594;80;21112;-62
2022/01/13 11:06:18;;;;;;;34.05;23.70;;;;;;;3.69;43.50;95566.52;1712291;81;21110;-63
2022/01/13 11:08:48;;;;;;;39.85;26.65;;;;;;;3.65;44.00;95560.30;1670091;83;21117;-64
2022/01/13 11:11:26;;;;;;;31.62;20.45;;;;;;;3.89;44.34;95558.83;1692673;83;21014;-64
2022/01/13 11:14:14;;;;;;;31.55;19.50;;;;;;;4.44;43.42;95556.02;1718992;81;21126;-60
2022/01/13 11:16:37;;;;;;;30.05;19.98;;;;;;;4.74;42.11;95550.37;1719328;81;21017;-66
2022/01/13 11:19:05;;;;;;;31.20;20.77;;;;;;;4.69;42.25;95539.88;1678142;82;21849;-62
2022/01/13 11:21:33;;;;;;;28.87;21.15;;;;;;;4.59;42.31;95522.92;1730287;80;21100;-62
2022/01/13 11:24:00;;;;;;;31.65;21.57;;;;;;;4.50;42.65;95511.66;1713764;81;21019;-63
2022/01/13 11:26:27;;;;;;;29.50;20.27;;;;;;;4.36;42.71;95512.21;1724197;81;21522;-64
2022/01/13 11:29:00;;;;;;;32.05;22.75;;;;;;;4.16;43.13;95509.11;1703521;81;21106;-64
2022/01/13 11:31:28;;;;;;;32.30;23.12;;;;;;;3.95;43.83;95496.83;1734636;81;21775;-64
2022/01/13 11:33:54;;;;;;;28.23;19.80;;;;;;;4.17;43.87;95476.63;1742863;81;20950;-61
2022/01/13 11:36:23;;;;;;;27.48;19.12;;;;;;;4.47;43.32;95478.38;1729103;82;20965;-61
2022/01/13 11:39:00;;;;;;;28.95;19.80;;;;;;;4.82;42.67;95478.31;1719362;81;21039;-63